CYLT

Alert Airport

Alert, Canada
METAR CYLT 180200Z 17003KT 15SM FEW035 M34/M38 A2950 RMK SC2 LAST OBS/NEXT 181300 UTC SLP995
Observed Flight Rules
Dec-18 @ 02:00 UTC (7 hours ago) Visual Flight Rules
Wind Visibility Clouds
170° at 3 knots 15 miles
  • Few at 3,500' AGL
Temperatures Readings
Current -34°C / -29°F
Dewpoint -38°C / -36°F
Humidity 67%
Altimeter 29.5" Hg
Pressure 999.5 hPa
Elevation 31
METAR CYLT 180200Z 17003KT 15SM FEW035 M34/M38 A2950 RMK SC2 LAST OBS/NEXT 181300 UTC SLP995
Observed Flight Rules
Dec-18 @ 02:00 UTC
(7 hours ago)
VFR
Wind Visibility
170° at 3 knots 15 miles
Clouds
  • Few at 3,500' AGL
Temperature Dewpoint
-34°C / -29°F -38°C / -36°F
Humidity Altimeter Pressure
67% 29.5" Hg 999.5 hPa